Time;durP1;ratioP1;P1;durP2;ratioP2;P2;SDS_P1;SDS_P2;PMS_P1;PMS_P2;Temp;Humidity;BMP_temperature;BMP_pressure;BME280_temperature;BME280_humidity;BME280_pressure;Samples;Min_cycle;Max_cycle;Signal;HPM_P1;HPM_P2
2023/10/24 10:28:40;;;;;;;10.07;5.55;;;14.40;36.70;;;;;;5294353;27;20401;-67
2023/10/24 10:31:14;;;;;;;8.68;6.25;;;14.50;99.90;;;;;;5258043;28;20049;-67
2023/10/24 10:33:49;;;;;;;13.57;6.38;;;14.40;32.00;;;;;;5267394;28;20039;-66
2023/10/24 10:36:20;;;;;;;7.97;5.68;;;14.30;78.50;;;;;;5266471;28;20479;-66
2023/10/24 10:38:54;;;;;;;7.80;5.88;;;14.30;95.70;;;;;;5291587;27;20034;-66
2023/10/24 10:41:26;;;;;;;9.10;6.80;;;14.10;99.90;;;;;;5252622;28;20239;-66
2023/10/24 10:44:01;;;;;;;12.30;6.25;;;14.00;99.90;;;;;;5283433;28;20027;-67
2023/10/24 10:46:33;;;;;;;10.45;5.80;;;13.90;99.90;;;;;;5281506;28;20045;-66
2023/10/24 10:49:06;;;;;;;9.88;6.05;;;14.00;99.90;;;;;;5275248;28;20026;-66
2023/10/24 10:51:38;;;;;;;10.30;7.50;;;14.10;99.90;;;;;;5273778;28;20031;-66
2023/10/24 10:54:21;;;;;;;11.88;6.57;;;14.30;99.90;;;;;;5248973;27;20264;-66
2023/10/24 10:56:56;;;;;;;7.80;6.13;;;14.30;99.90;;;;;;5279011;27;20292;-66
2023/10/24 10:59:36;;;;;;;12.38;6.75;;;14.40;47.10;;;;;;5286822;27;20036;-66
2023/10/24 11:02:36;;;;;;;9.13;5.95;;;14.20;99.90;;;;;;5255993;28;20044;-68
2023/10/24 11:05:43;;;;;;;11.63;5.95;;;14.20;99.90;;;;;;5274011;28;20032;-66
2023/10/24 11:08:20;;;;;;;12.88;5.45;;;14.40;99.90;;;;;;5271962;28;20032;-67
2023/10/24 11:10:56;;;;;;;9.13;6.20;;;14.70;99.90;;;;;;5276623;28;20036;-67
2023/10/24 11:13:46;;;;;;;8.02;5.45;;;14.80;55.50;;;;;;5271763;28;20058;-66
2023/10/24 11:16:20;;;;;;;9.57;5.85;;;14.80;81.20;;;;;;5284675;28;20051;-65
2023/10/24 11:18:56;;;;;;;12.32;6.15;;;14.60;99.90;;;;;;5246243;28;20048;-65
2023/10/24 11:21:32;;;;;;;209.75;130.18;;;14.40;99.90;;;;;;5250002;28;20028;-66
2023/10/24 11:24:04;;;;;;;1000.67;470.25;;;14.40;99.90;;;;;;5271465;28;20028;-65
2023/10/24 11:26:35;;;;;;;473.00;406.92;;;14.10;99.90;;;;;;5272010;28;20023;-66
2023/10/24 11:29:07;;;;;;;682.58;447.05;;;13.90;99.90;;;;;;5234798;28;20032;-66
2023/10/24 11:31:44;;;;;;;85.22;66.82;;;13.80;99.90;;;;;;5252815;28;20026;-65
2023/10/24 11:34:18;;;;;;;95.63;85.68;;;13.80;99.90;;;;;;5271960;28;20028;-66
2023/10/24 11:36:51;;;;;;;;;;;13.90;99.90;;;;;;5289491;28;20031;-63
2023/10/24 11:39:22;;;;;;;46.20;41.33;;;13.90;99.90;;;;;;5278506;28;19912;-64
2023/10/24 11:41:56;;;;;;;18.60;13.75;;;13.80;99.90;;;;;;5241242;28;20042;-64
2023/10/24 11:44:29;;;;;;;87.50;75.47;;;13.60;99.90;;;;;;5240854;28;20557;-66
2023/10/24 11:47:04;;;;;;;62.00;52.83;;;13.70;99.90;;;;;;5233529;28;20036;-68
2023/10/24 11:49:36;;;;;;;88.75;72.28;;;13.50;99.90;;;;;;5226587;28;20362;-66
2023/10/24 11:52:07;;;;;;;37.03;32.67;;;13.40;99.90;;;;;;5253931;28;20031;-67
2023/10/24 11:54:39;;;;;;;130.63;111.53;;;13.50;99.90;;;;;;5220263;28;20462;-67
2023/10/24 11:57:11;;;;;;;29.17;24.40;;;13.50;99.90;;;;;;5219913;28;20040;-63
2023/10/24 11:59:42;;;;;;;13.75;9.15;;;13.40;99.90;;;;;;5219961;28;20033;-64
2023/10/24 12:02:15;;;;;;;24.17;15.95;;;13.30;99.90;;;;;;5247642;28;20501;-66
2023/10/24 12:04:51;;;;;;;101.90;70.97;;;13.30;99.90;;;;;;5239031;28;20042;-64
2023/10/24 12:07:28;;;;;;;19.70;14.25;;;13.30;99.90;;;;;;5238715;28;20036;-66
2023/10/24 12:10:12;;;;;;;246.95;214.75;;;13.20;99.90;;;;;;5223851;28;20385;-64
2023/10/24 12:12:48;;;;;;;164.23;146.75;;;12.90;99.90;;;;;;5273912;28;20024;-63
2023/10/24 12:15:20;;;;;;;74.25;67.18;;;12.80;99.90;;;;;;5233474;28;20043;-65
2023/10/24 12:17:51;;;;;;;31.58;25.35;;;12.70;99.90;;;;;;5227551;28;20032;-63
2023/10/24 12:20:23;;;;;;;51.03;45.30;;;12.70;99.90;;;;;;5265452;28;20031;-63
2023/10/24 12:22:56;;;;;;;20.52;17.58;;;12.70;99.90;;;;;;5274234;28;20024;-63
2023/10/24 12:25:30;;;;;;;33.60;27.95;;;12.70;99.90;;;;;;5238882;28;20496;-64
2023/10/24 12:28:01;;;;;;;21.08;13.60;;;12.80;99.90;;;;;;5226228;28;20246;-65
2023/10/24 12:30:32;;;;;;;20.25;11.00;;;12.90;99.90;;;;;;5232166;28;20148;-69
2023/10/24 12:33:06;;;;;;;32.92;29.52;;;12.90;99.90;;;;;;5254178;28;20028;-65
2023/10/24 12:35:37;;;;;;;22.63;19.48;;;12.90;99.90;;;;;;5237763;28;20034;-66
2023/10/24 12:38:15;;;;;;;40.22;36.03;;;12.90;99.90;;;;;;5255531;28;20317;-65
2023/10/24 12:40:49;;;;;;;20.90;14.02;;;12.80;99.90;;;;;;5273216;28;20038;-65
2023/10/24 12:43:23;;;;;;;;;;;12.80;99.90;;;;;;5238901;28;20040;-65
2023/10/24 12:45:56;;;;;;;14.25;8.15;;;12.80;99.90;;;;;;5235158;28;20207;-66
2023/10/24 12:48:28;;;;;;;19.05;8.65;;;12.70;99.90;;;;;;5251314;28;20462;-67
2023/10/24 12:50:59;;;;;;;12.57;7.57;;;12.60;99.90;;;;;;5234366;28;20264;-67
2023/10/24 12:53:30;;;;;;;15.00;8.40;;;12.70;99.90;;;;;;5272857;28;20028;-66
2023/10/24 12:56:10;;;;;;;15.30;7.93;;;12.70;99.90;;;;;;5254650;28;20345;-66
2023/10/24 12:58:41;;;;;;;12.38;6.82;;;12.70;99.90;;;;;;5251425;28;20028;-71
2023/10/24 13:01:12;;;;;;;12.80;7.65;;;12.90;99.90;;;;;;5264040;28;20020;-69
2023/10/24 13:03:44;;;;;;;14.95;8.50;;;12.80;99.90;;;;;;5237514;28;20028;-68
2023/10/24 13:06:15;;;;;;;14.18;8.75;;;12.90;99.90;;;;;;5271915;28;20089;-67
2023/10/24 13:08:46;;;;;;;14.27;8.05;;;13.00;99.90;;;;;;5254392;28;20040;-67
2023/10/24 13:11:17;;;;;;;12.25;7.53;;;13.00;99.90;;;;;;5238272;28;20037;-65
2023/10/24 13:13:51;;;;;;;13.63;8.38;;;13.10;99.90;;;;;;5255177;28;20024;-66
2023/10/24 13:16:22;;;;;;;14.80;8.18;;;13.20;99.90;;;;;;5270123;28;20028;-64
2023/10/24 13:18:56;;;;;;;13.43;7.80;;;13.30;99.90;;;;;;5270569;28;20053;-68
2023/10/24 13:21:33;;;;;;;11.13;8.02;;;13.30;99.90;;;;;;5252439;28;20220;-68
2023/10/24 13:24:04;;;;;;;13.70;8.88;;;13.30;99.90;;;;;;5265645;28;20032;-66
2023/10/24 13:26:36;;;;;;;14.23;8.52;;;13.20;99.90;;;;;;5211861;28;20044;-68
2023/10/24 13:29:07;;;;;;;12.52;7.43;;;13.10;99.90;;;;;;5231153;28;20222;-67
2023/10/24 13:31:41;;;;;;;12.63;8.05;;;13.10;99.90;;;;;;5230590;28;20035;-66
2023/10/24 13:34:14;;;;;;;13.25;8.48;;;13.00;99.90;;;;;;5214288;28;20329;-66
2023/10/24 13:36:46;;;;;;;12.70;7.53;;;13.00;99.90;;;;;;5229303;28;20035;-66
2023/10/24 13:39:17;;;;;;;14.25;7.68;;;13.00;99.90;;;;;;5237895;28;20062;-68
2023/10/24 13:41:49;;;;;;;30.58;27.25;;;12.90;99.90;;;;;;5242849;28;20078;-65
2023/10/24 13:44:28;;;;;;;15.45;11.60;;;12.90;99.90;;;;;;5223173;28;20054;-65
2023/10/24 13:46:59;;;;;;;86.60;51.00;;;12.90;99.90;;;;;;5237233;28;20028;-67
2023/10/24 13:49:34;;;;;;;30.50;22.42;;;12.90;99.90;;;;;;5243794;28;20028;-65
2023/10/24 13:52:05;;;;;;;122.32;109.93;;;12.80;99.90;;;;;;5224456;28;20339;-67
2023/10/24 13:54:39;;;;;;;32.03;28.77;;;12.90;99.90;;;;;;5240452;28;20029;-66
2023/10/24 13:57:11;;;;;;;38.00;34.38;;;13.00;99.90;;;;;;5228207;28;20041;-68
2023/10/24 13:59:42;;;;;;;12.43;9.82;;;13.00;99.90;;;;;;5239925;28;20043;-67
2023/10/24 14:02:14;;;;;;;25.58;16.85;;;12.90;99.90;;;;;;5248632;28;20024;-64
2023/10/24 14:04:46;;;;;;;22.70;20.35;;;12.90;99.90;;;;;;5239367;28;20037;-68
2023/10/24 14:07:17;;;;;;;16.85;9.68;;;12.90;99.90;;;;;;5221148;28;20029;-65
2023/10/24 14:09:53;;;;;;;10.13;7.78;;;12.80;99.90;;;;;;5242938;28;20215;-67
2023/10/24 14:12:25;;;;;;;15.23;12.38;;;12.80;99.90;;;;;;5236195;28;20029;-66
2023/10/24 14:14:56;;;;;;;13.35;10.77;;;12.80;99.90;;;;;;5224547;28;20039;-65
2023/10/24 14:17:27;;;;;;;13.98;12.00;;;12.70;99.90;;;;;;5253731;28;20037;-67
2023/10/24 14:20:01;;;;;;;20.20;13.63;;;12.70;99.90;;;;;;5239757;28;20017;-65
2023/10/24 14:22:32;;;;;;;10.07;7.32;;;12.70;99.90;;;;;;5237170;28;20035;-67
2023/10/24 14:25:04;;;;;;;10.13;5.78;;;12.70;99.90;;;;;;5226416;28;20024;-65
2023/10/24 14:27:35;;;;;;;6.40;5.18;;;12.70;99.90;;;;;;5254731;28;20028;-68
2023/10/24 14:30:07;;;;;;;15.57;5.85;;;12.70;99.90;;;;;;5258198;28;20035;-70
2023/10/24 14:32:41;;;;;;;9.77;5.78;;;12.70;99.90;;;;;;5225292;28;20031;-68
2023/10/24 14:35:17;;;;;;;7.53;5.63;;;12.70;99.90;;;;;;5258959;28;20054;-68
2023/10/24 14:37:51;;;;;;;9.00;6.20;;;12.80;99.90;;;;;;5239505;28;20365;-67
2023/10/24 14:40:22;;;;;;;12.45;5.60;;;12.80;99.90;;;;;;5231361;28;20042;-65
2023/10/24 14:42:59;;;;;;;7.03;5.72;;;12.80;99.90;;;;;;5259256;28;20028;-65
2023/10/24 14:45:30;;;;;;;8.43;6.45;;;12.80;99.90;;;;;;5222611;28;20020;-66
2023/10/24 14:48:01;;;;;;;8.90;6.22;;;12.90;99.90;;;;;;5245549;28;20035;-66
2023/10/24 14:50:35;;;;;;;12.52;6.55;;;12.80;99.90;;;;;;5213168;28;20038;-66
2023/10/24 14:53:07;;;;;;;7.60;6.32;;;12.90;99.90;;;;;;5244037;28;20029;-67
2023/10/24 14:55:41;;;;;;;8.57;5.93;;;12.90;99.90;;;;;;5243928;28;20055;-69
2023/10/24 14:58:12;;;;;;;11.98;7.40;;;12.90;99.90;;;;;;5228509;28;20046;-66
2023/10/24 15:00:47;;;;;;;23.35;13.45;;;12.80;99.90;;;;;;5236660;28;20039;-67
2023/10/24 15:03:22;;;;;;;24.80;15.48;;;12.80;99.90;;;;;;5224024;28;20290;-68
2023/10/24 15:05:56;;;;;;;15.63;11.32;;;12.80;99.90;;;;;;5232615;28;20024;-65
2023/10/24 15:08:27;;;;;;;14.38;10.93;;;12.80;99.90;;;;;;5237329;28;20028;-68
2023/10/24 15:10:58;;;;;;;16.10;8.93;;;12.80;99.90;;;;;;5241644;28;20333;-66
2023/10/24 15:13:29;;;;;;;12.32;7.82;;;12.70;99.90;;;;;;5261414;28;20034;-68
2023/10/24 15:16:03;;;;;;;12.18;8.48;;;12.70;99.90;;;;;;5260373;28;20027;-67
2023/10/24 15:18:36;;;;;;;11.93;7.87;;;12.60;99.90;;;;;;5244123;28;20398;-67
2023/10/24 15:21:08;;;;;;;8.93;7.00;;;12.60;99.90;;;;;;5257790;28;20254;-67
2023/10/24 15:23:42;;;;;;;9.85;7.38;;;12.60;99.90;;;;;;5235682;28;20024;-66
2023/10/24 15:26:13;;;;;;;9.82;7.25;;;12.60;99.90;;;;;;5233630;28;20042;-66
2023/10/24 15:28:44;;;;;;;13.27;7.82;;;12.60;99.90;;;;;;5271967;28;20192;-66
2023/10/24 15:31:20;;;;;;;9.85;7.03;;;12.60;99.90;;;;;;5254352;28;20204;-68
2023/10/24 15:33:52;;;;;;;13.98;7.13;;;12.60;99.90;;;;;;5249274;28;20209;-67
2023/10/24 15:36:26;;;;;;;13.73;8.32;;;12.60;99.90;;;;;;5251484;28;20030;-70
2023/10/24 15:39:01;;;;;;;147.25;132.52;;;12.60;99.90;;;;;;5246330;28;20035;-69
2023/10/24 15:41:36;;;;;;;39.03;35.03;;;12.60;99.90;;;;;;5263379;28;20200;-68
2023/10/24 15:44:07;;;;;;;218.80;124.45;;;12.70;99.90;;;;;;5262990;28;20199;-68
2023/10/24 15:46:44;;;;;;;50.65;33.60;;;12.70;99.90;;;;;;5261544;28;20201;-69
2023/10/24 15:49:15;;;;;;;24.35;18.85;;;12.70;99.90;;;;;;5268481;28;20030;-70
2023/10/24 15:51:49;;;;;;;119.90;85.97;;;12.80;99.90;;;;;;5249709;28;20024;-71
2023/10/24 15:54:22;;;;;;;441.80;275.63;;;12.80;99.90;;;;;;5253746;28;20033;-68
2023/10/24 15:56:54;;;;;;;457.98;315.05;;;12.80;99.90;;;;;;5224567;28;20039;-69
2023/10/24 15:59:28;;;;;;;433.13;325.95;;;12.80;99.90;;;;;;5236997;28;20028;-68
2023/10/24 16:02:00;;;;;;;148.82;133.13;;;12.80;99.90;;;;;;5230698;28;20046;-68
2023/10/24 16:04:34;;;;;;;26.55;20.10;;;12.90;99.90;;;;;;5244625;28;20049;-67
2023/10/24 16:07:06;;;;;;;28.27;23.83;;;12.90;99.90;;;;;;5248920;28;20041;-68
2023/10/24 16:09:37;;;;;;;29.63;26.00;;;12.90;99.90;;;;;;5229459;28;20093;-66
2023/10/24 16:12:09;;;;;;;21.25;12.35;;;13.00;99.90;;;;;;5234249;28;20024;-68
2023/10/24 16:14:43;;;;;;;15.40;10.75;;;13.00;99.90;;;;;;5247751;28;20016;-69
2023/10/24 16:17:19;;;;;;;18.07;11.50;;;13.10;99.90;;;;;;5258261;28;20027;-67
2023/10/24 16:19:50;;;;;;;15.38;10.50;;;13.10;99.90;;;;;;5247582;28;20077;-69
2023/10/24 16:22:22;;;;;;;15.63;10.48;;;13.20;99.90;;;;;;5231754;28;20038;-69
2023/10/24 16:24:53;;;;;;;16.52;10.52;;;13.20;99.90;;;;;;5263355;28;20174;-68
2023/10/24 16:27:24;;;;;;;16.90;11.20;;;13.30;99.90;;;;;;5265637;28;20048;-70
2023/10/24 16:29:55;;;;;;;16.25;10.07;;;13.30;99.90;;;;;;5254365;28;20039;-70
2023/10/24 16:32:27;;;;;;;15.35;9.23;;;13.30;99.90;;;;;;5227569;28;20032;-70
2023/10/24 16:35:00;;;;;;;11.68;8.30;;;13.30;99.90;;;;;;5231305;28;20035;-69
2023/10/24 16:37:33;;;;;;;13.45;8.43;;;13.30;99.90;;;;;;5229692;28;20032;-70
2023/10/24 16:40:05;;;;;;;10.30;7.78;;;13.40;99.90;;;;;;5264866;28;20040;-68
2023/10/24 16:42:36;;;;;;;10.90;7.97;;;13.40;99.90;;;;;;5264751;28;20020;-69
2023/10/24 16:45:08;;;;;;;11.93;7.80;;;13.40;99.90;;;;;;5243712;28;20019;-71
2023/10/24 16:47:45;;;;;;;12.23;7.32;;;13.50;99.90;;;;;;5236987;28;20033;-71
2023/10/24 16:50:19;;;;;;;14.32;7.88;;;13.50;99.90;;;;;;5240432;28;20387;-71
2023/10/24 16:52:50;;;;;;;13.48;8.55;;;13.50;99.90;;;;;;5237127;28;20191;-69
2023/10/24 16:55:21;;;;;;;15.45;8.15;;;13.60;99.90;;;;;;5255037;28;20044;-70
2023/10/24 16:57:52;;;;;;;10.60;8.57;;;13.60;99.90;;;;;;5237539;28;20036;-68
2023/10/24 17:00:27;;;;;;;18.65;8.50;;;13.60;99.90;;;;;;5247666;28;20050;-67
2023/10/24 17:02:58;;;;;;;12.88;7.95;;;13.60;99.90;;;;;;5236817;28;20182;-69
2023/10/24 17:05:35;;;;;;;12.07;8.50;;;13.60;99.90;;;;;;5249361;28;20024;-69
2023/10/24 17:08:10;;;;;;;12.50;8.15;;;13.60;99.90;;;;;;5222705;28;20065;-67
2023/10/24 17:10:42;;;;;;;14.07;7.63;;;13.60;99.90;;;;;;5218395;28;20024;-67
2023/10/24 17:13:15;;;;;;;14.10;8.82;;;13.60;99.90;;;;;;5258915;28;20179;-69
2023/10/24 17:15:47;;;;;;;13.03;7.40;;;13.60;99.90;;;;;;5245366;28;20479;-68
2023/10/24 17:18:25;;;;;;;13.63;9.55;;;13.60;99.90;;;;;;5249483;28;20220;-66
2023/10/24 17:21:01;;;;;;;15.95;7.93;;;13.60;99.90;;;;;;5240586;28;20237;-65
2023/10/24 17:23:34;;;;;;;14.82;8.48;;;13.60;99.90;;;;;;5260541;28;20027;-67
2023/10/24 17:26:06;;;;;;;15.10;9.10;;;13.60;99.90;;;;;;5234099;28;20050;-67
2023/10/24 17:28:37;;;;;;;11.05;8.38;;;13.60;99.90;;;;;;5229994;28;20039;-69
2023/10/24 17:31:09;;;;;;;14.73;9.43;;;13.60;99.90;;;;;;5247190;28;20036;-67
2023/10/24 17:33:40;;;;;;;15.30;9.27;;;13.60;99.90;;;;;;5239024;28;20050;-66
2023/10/24 17:36:11;;;;;;;16.65;10.40;;;13.60;99.90;;;;;;5212383;28;20262;-69
2023/10/24 17:38:45;;;;;;;17.60;10.00;;;13.60;99.90;;;;;;5216178;28;20032;-65
2023/10/24 17:41:18;;;;;;;17.15;9.90;;;13.60;99.90;;;;;;5219550;28;20495;-68
2023/10/24 17:43:52;;;;;;;14.50;9.30;;;13.60;99.90;;;;;;5234672;28;20039;-70
2023/10/24 17:46:24;;;;;;;11.75;6.93;;;13.70;99.90;;;;;;5230751;28;20269;-69
2023/10/24 17:49:03;;;;;;;12.50;6.65;;;13.90;99.90;;;;;;5253434;28;20036;-69
2023/10/24 17:51:34;;;;;;;10.27;6.63;;;13.90;99.90;;;;;;5255847;28;20027;-68
2023/10/24 17:54:06;;;;;;;7.95;5.25;;;14.20;99.90;;;;;;5234118;28;20031;-72
2023/10/24 17:56:42;;;;;;;12.10;5.50;;;14.30;99.90;;;;;;5218346;28;20501;-70
2023/10/24 17:59:13;;;;;;;11.65;5.35;;;14.40;99.90;;;;;;5219721;28;20028;-67
2023/10/24 18:01:47;;;;;;;10.45;4.78;;;14.40;99.90;;;;;;5250773;28;20024;-67
2023/10/24 18:04:22;;;;;;;10.23;4.63;;;14.50;99.90;;;;;;5236313;28;20028;-69
2023/10/24 18:06:55;;;;;;;9.77;4.43;;;14.60;99.90;;;;;;5232842;28;20032;-69
2023/10/24 18:09:28;;;;;;;9.00;4.78;;;14.60;99.90;;;;;;5223124;28;20619;-69
2023/10/24 18:12:00;;;;;;;11.65;4.40;;;14.70;99.90;;;;;;5223933;28;20241;-69
2023/10/24 18:14:32;;;;;;;9.23;4.72;;;14.70;99.90;;;;;;5249541;28;20021;-68
2023/10/24 18:17:03;;;;;;;9.18;3.55;;;14.80;99.90;;;;;;5224130;28;20036;-68
2023/10/24 18:19:35;;;;;;;12.10;4.18;;;14.80;99.90;;;;;;5223903;28;20503;-70
2023/10/24 18:22:11;;;;;;;7.40;4.15;;;14.80;99.90;;;;;;5216726;28;20017;-67
2023/10/24 18:24:42;;;;;;;6.97;4.20;;;14.80;99.90;;;;;;5221229;28;20024;-69
2023/10/24 18:27:16;;;;;;;8.82;4.20;;;14.80;99.90;;;;;;5229961;28;20299;-66
2023/10/24 18:29:47;;;;;;;8.95;3.92;;;14.80;99.90;;;;;;5229141;28;20233;-68
2023/10/24 18:32:20;;;;;;;10.30;4.80;;;14.80;99.90;;;;;;5229530;28;20031;-69
2023/10/24 18:34:53;;;;;;;8.05;4.30;;;14.80;99.90;;;;;;5216658;28;20409;-68
2023/10/24 18:37:28;;;;;;;9.65;4.65;;;14.80;99.90;;;;;;5231577;28;20048;-69
2023/10/24 18:40:02;;;;;;;11.90;4.80;;;14.70;99.90;;;;;;5211732;28;20026;-69
2023/10/24 18:42:34;;;;;;;11.10;5.30;;;14.70;99.90;;;;;;5218876;28;20036;-67
2023/10/24 18:45:08;;;;;;;15.48;5.47;;;14.60;99.90;;;;;;5222800;28;20024;-70
2023/10/24 18:47:39;;;;;;;10.90;7.75;;;14.50;99.90;;;;;;5214028;28;20045;-67
2023/10/24 18:50:10;;;;;;;15.90;9.00;;;14.40;99.90;;;;;;5227432;28;20515;-67
2023/10/24 18:52:44;;;;;;;15.40;8.52;;;14.10;99.90;;;;;;5227280;28;20032;-68
2023/10/24 18:55:18;;;;;;;12.35;8.40;;;14.00;99.90;;;;;;5228225;28;20122;-69
2023/10/24 18:57:49;;;;;;;18.15;11.75;;;13.80;99.90;;;;;;5221023;28;20028;-67
2023/10/24 19:00:23;;;;;;;19.70;11.60;;;13.80;99.90;;;;;;5241213;28;20043;-67
2023/10/24 19:03:00;;;;;;;16.83;11.18;;;13.70;99.90;;;;;;5236713;28;20030;-69
2023/10/24 19:05:32;;;;;;;17.30;10.43;;;13.70;99.90;;;;;;5226880;28;20028;-68
2023/10/24 19:08:04;;;;;;;17.63;8.95;;;13.60;99.90;;;;;;5244659;28;20032;-67
2023/10/24 19:10:38;;;;;;;15.80;9.15;;;13.70;99.90;;;;;;5224376;28;20038;-70
2023/10/24 19:13:10;;;;;;;;;;;13.70;99.90;;;;;;5253898;28;20035;-69
2023/10/24 19:15:41;;;;;;;12.52;8.23;;;13.90;99.90;;;;;;5271584;28;19900;-70
2023/10/24 19:18:16;;;;;;;8.20;6.20;;;14.00;99.90;;;;;;5236085;28;20036;-65
2023/10/24 19:20:50;;;;;;;13.25;6.32;;;14.10;99.90;;;;;;5227210;28;20047;-67
2023/10/24 19:23:23;;;;;;;9.80;5.50;;;14.20;99.90;;;;;;5244566;28;20030;-67
2023/10/24 19:25:57;;;;;;;12.15;6.55;;;14.40;99.90;;;;;;5223538;28;20028;-65
2023/10/24 19:28:34;;;;;;;16.02;7.35;;;14.50;99.90;;;;;;5227045;28;20040;-68
2023/10/24 19:31:06;;;;;;;13.13;6.55;;;14.40;99.90;;;;;;5245993;28;20040;-69
2023/10/24 19:33:39;;;;;;;15.35;6.50;;;14.40;99.90;;;;;;5261965;28;20197;-68
2023/10/24 19:36:13;;;;;;;7.63;4.97;;;14.50;99.90;;;;;;5241303;28;20049;-73
2023/10/24 19:38:45;;;;;;;10.95;5.90;;;14.40;99.90;;;;;;5227283;28;20042;-68
2023/10/24 19:41:16;;;;;;;9.77;6.18;;;14.10;99.90;;;;;;5256534;28;20028;-67
2023/10/24 19:43:48;;;;;;;12.82;6.97;;;13.80;99.90;;;;;;5265362;28;20019;-66
2023/10/24 19:46:24;;;;;;;11.43;7.63;;;13.50;99.90;;;;;;5263469;28;20020;-64
2023/10/24 19:48:56;;;;;;;11.50;8.48;;;13.40;99.90;;;;;;5226398;28;20059;-67
2023/10/24 19:51:30;;;;;;;12.00;8.00;;;13.20;99.90;;;;;;5230387;28;20387;-67
2023/10/24 19:54:03;;;;;;;13.95;8.38;;;13.10;99.90;;;;;;5265016;28;20049;-67
2023/10/24 19:56:37;;;;;;;14.13;9.32;;;13.00;99.90;;;;;;5228583;28;20035;-67
2023/10/24 19:59:10;;;;;;;;;;;12.90;99.90;;;;;;5225999;28;20042;-67
2023/10/24 20:01:50;;;;;;;16.65;10.73;;;12.80;99.90;;;;;;5239625;28;19912;-66
2023/10/24 20:04:22;;;;;;;19.42;9.80;;;12.80;99.90;;;;;;5255552;28;20022;-65
2023/10/24 20:06:56;;;;;;;15.20;10.30;;;12.80;99.90;;;;;;5224250;28;20031;-65
2023/10/24 20:09:30;;;;;;;17.33;10.93;;;12.80;99.90;;;;;;5260663;28;20028;-69
2023/10/24 20:12:01;;;;;;;16.13;10.68;;;12.80;99.90;;;;;;5225950;28;20033;-64
2023/10/24 20:14:36;;;;;;;18.88;11.30;;;12.80;99.90;;;;;;5271156;28;20248;-66
2023/10/24 20:17:12;;;;;;;19.80;10.95;;;12.80;99.90;;;;;;5222829;28;20038;-64
2023/10/24 20:19:44;;;;;;;15.82;10.57;;;12.80;99.90;;;;;;5242678;28;20322;-66
2023/10/24 20:22:16;;;;;;;17.30;11.38;;;12.80;99.90;;;;;;5234411;28;20032;-66
2023/10/24 20:24:49;;;;;;;14.93;10.32;;;12.80;99.90;;;;;;5264925;28;20032;-66
2023/10/24 20:27:21;;;;;;;13.98;9.82;;;12.90;99.90;;;;;;5228276;28;20036;-64
2023/10/24 20:29:57;;;;;;;17.45;10.30;;;12.90;99.90;;;;;;5225679;28;20029;-63
2023/10/24 20:32:29;;;;;;;14.38;9.32;;;13.00;99.90;;;;;;5241431;28;20036;-64
2023/10/24 20:35:02;;;;;;;15.73;10.35;;;13.00;99.90;;;;;;5252182;28;20032;-65
2023/10/24 20:37:36;;;;;;;15.45;10.35;;;12.90;99.90;;;;;;5252407;28;20320;-63
2023/10/24 20:40:11;;;;;;;18.40;9.93;;;12.90;99.90;;;;;;5247250;28;20028;-66
2023/10/24 20:42:45;;;;;;;14.68;10.20;;;13.00;99.90;;;;;;5241908;28;20028;-66
2023/10/24 20:45:20;;;;;;;18.92;10.63;;;13.00;99.90;;;;;;5224059;28;20044;-66
2023/10/24 20:47:51;;;;;;;15.93;10.10;;;12.90;99.90;;;;;;5242662;28;20031;-66
2023/10/24 20:50:27;;;;;;;14.00;9.43;;;12.90;99.90;;;;;;5242284;28;20043;-67
2023/10/24 20:53:01;;;;;;;12.05;8.68;;;12.90;99.90;;;;;;5242528;28;20581;-67
2023/10/24 20:55:32;;;;;;;12.75;8.00;;;12.90;99.90;;;;;;5229749;28;20031;-65
2023/10/24 20:58:06;;;;;;;11.88;6.90;;;12.90;99.90;;;;;;5212276;28;20035;-65
2023/10/24 21:00:42;;;;;;;9.10;6.57;;;12.90;99.90;;;;;;5220289;28;20031;-66
2023/10/24 21:03:13;;;;;;;9.32;6.25;;;12.90;99.90;;;;;;5236662;28;20035;-66
2023/10/24 21:05:44;;;;;;;9.48;6.38;;;12.90;99.90;;;;;;5241925;28;20034;-66
2023/10/24 21:08:20;;;;;;;10.32;5.65;;;12.90;99.90;;;;;;5243319;28;20347;-64
2023/10/24 21:10:55;;;;;;;9.52;6.20;;;12.90;99.90;;;;;;5224122;28;20377;-64
2023/10/24 21:13:26;;;;;;;10.57;6.00;;;12.80;99.90;;;;;;5241872;28;20016;-67
2023/10/24 21:15:58;;;;;;;7.70;5.32;;;12.80;99.90;;;;;;5241693;28;20043;-65
2023/10/24 21:18:30;;;;;;;10.40;6.15;;;12.80;99.90;;;;;;5242990;28;20027;-67
2023/10/24 21:21:01;;;;;;;7.97;5.53;;;12.80;99.90;;;;;;5242848;28;20039;-67
2023/10/24 21:23:32;;;;;;;6.90;5.32;;;12.80;99.90;;;;;;5242710;28;20024;-69
2023/10/24 21:26:03;;;;;;;10.98;6.45;;;12.80;99.90;;;;;;5237864;28;20039;-65
2023/10/24 21:28:40;;;;;;;7.55;5.18;;;12.80;99.90;;;;;;5209541;28;20055;-67
2023/10/24 21:31:13;;;;;;;11.80;6.07;;;12.80;99.90;;;;;;5257453;28;20028;-67
2023/10/24 21:33:44;;;;;;;10.50;6.10;;;12.80;99.90;;;;;;5244724;28;20050;-67
2023/10/24 21:36:15;;;;;;;9.60;6.22;;;12.80;99.90;;;;;;5246092;28;20062;-67
2023/10/24 21:38:52;;;;;;;8.88;6.53;;;12.70;99.90;;;;;;5229081;28;20036;-66
2023/10/24 21:41:27;;;;;;;11.43;7.00;;;12.70;99.90;;;;;;5210432;28;20036;-66
2023/10/24 21:43:58;;;;;;;11.80;6.55;;;12.70;99.90;;;;;;5245321;28;20456;-66
2023/10/24 21:46:30;;;;;;;11.50;6.30;;;12.70;99.90;;;;;;5242288;28;20055;-67
2023/10/24 21:49:02;;;;;;;9.50;6.88;;;12.70;99.90;;;;;;5263846;28;20375;-66
2023/10/24 21:51:34;;;;;;;10.00;6.20;;;12.70;99.90;;;;;;5228384;28;20058;-67
2023/10/24 21:54:05;;;;;;;11.70;7.03;;;12.70;99.90;;;;;;5263395;28;20042;-66
2023/10/24 21:56:39;;;;;;;11.52;7.00;;;12.70;99.90;;;;;;5237157;28;20039;-66
2023/10/24 21:59:13;;;;;;;;;;;12.70;99.90;;;;;;5213363;28;20042;-65
2023/10/24 22:01:44;;;;;;;9.13;6.68;;;12.70;99.90;;;;;;5266945;28;19900;-66
2023/10/24 22:04:15;;;;;;;14.45;7.75;;;12.80;99.90;;;;;;5267336;28;20046;-66
2023/10/24 22:06:46;;;;;;;8.98;6.03;;;12.80;99.90;;;;;;5237408;28;20028;-66
2023/10/24 22:09:20;;;;;;;11.52;6.35;;;12.70;99.90;;;;;;5220253;28;20058;-65
2023/10/24 22:11:54;;;;;;;9.77;6.97;;;12.70;99.90;;;;;;5245011;28;20035;-65
2023/10/24 22:14:25;;;;;;;9.10;6.25;;;12.70;99.90;;;;;;5244039;28;20016;-67
2023/10/24 22:16:56;;;;;;;8.98;6.40;;;12.70;99.90;;;;;;5261283;28;20036;-67
2023/10/24 22:19:30;;;;;;;11.25;7.40;;;12.80;99.90;;;;;;5263540;28;20042;-66
2023/10/24 22:22:01;;;;;;;8.75;6.10;;;12.80;99.90;;;;;;5227963;28;20446;-66
2023/10/24 22:24:37;;;;;;;11.18;7.03;;;12.80;99.90;;;;;;5248617;28;20042;-66
2023/10/24 22:27:11;;;;;;;11.18;6.55;;;12.80;99.90;;;;;;5209118;28;20048;-66
2023/10/24 22:29:42;;;;;;;9.30;5.65;;;12.80;99.90;;;;;;5234872;28;20248;-66
2023/10/24 22:32:14;;;;;;;13.38;7.93;;;12.80;99.90;;;;;;5260544;28;20028;-66
2023/10/24 22:34:47;;;;;;;12.00;6.72;;;12.80;99.90;;;;;;5262320;28;20034;-65
2023/10/24 22:37:23;;;;;;;10.27;6.80;;;12.80;99.90;;;;;;5246183;28;20321;-65
2023/10/24 22:39:55;;;;;;;10.85;6.82;;;12.80;99.90;;;;;;5212135;28;20036;-64
2023/10/24 22:42:29;;;;;;;10.95;7.10;;;12.70;99.90;;;;;;5262746;28;20032;-66
2023/10/24 22:45:00;;;;;;;10.18;6.78;;;12.70;99.90;;;;;;5262908;28;20070;-64
2023/10/24 22:47:34;;;;;;;10.68;6.93;;;12.70;99.90;;;;;;5226563;28;20527;-63
2023/10/24 22:50:08;;;;;;;11.05;7.47;;;12.70;99.90;;;;;;5227832;28;20083;-64
2023/10/24 22:52:39;;;;;;;8.35;6.05;;;12.70;99.90;;;;;;5225474;28;20217;-64
2023/10/24 22:55:14;;;;;;;10.93;6.45;;;12.70;99.90;;;;;;5262986;28;20026;-65
2023/10/24 22:57:48;;;;;;;10.40;6.93;;;12.60;99.90;;;;;;5262757;28;20054;-63
2023/10/24 23:00:25;;;;;;;11.52;6.50;;;12.60;99.90;;;;;;5225269;28;20390;-64
2023/10/24 23:02:58;;;;;;;9.68;6.22;;;12.70;99.90;;;;;;5250975;28;20027;-63
2023/10/24 23:05:32;;;;;;;9.48;6.07;;;12.70;99.90;;;;;;5227278;28;20031;-65
2023/10/24 23:08:09;;;;;;;10.55;6.75;;;12.70;99.90;;;;;;5262007;28;20028;-66
2023/10/24 23:10:42;;;;;;;8.40;5.72;;;12.70;99.90;;;;;;5227820;28;20040;-66
2023/10/24 23:13:13;;;;;;;9.95;5.57;;;12.70;99.90;;;;;;5227530;28;20032;-66
2023/10/24 23:15:44;;;;;;;10.00;6.00;;;12.70;99.90;;;;;;5241754;28;20525;-64
2023/10/24 23:18:15;;;;;;;10.88;6.15;;;12.60;99.90;;;;;;5227210;28;20036;-64
2023/10/24 23:20:47;;;;;;;10.27;5.35;;;12.60;99.90;;;;;;5259862;28;20028;-64
2023/10/24 23:23:20;;;;;;;7.95;5.28;;;12.60;99.90;;;;;;5242141;28;20067;-68
2023/10/24 23:25:53;;;;;;;8.90;5.03;;;12.60;99.90;;;;;;5262884;28;20023;-63
2023/10/24 23:28:26;;;;;;;7.85;5.82;;;12.60;99.90;;;;;;5261988;28;20032;-66
2023/10/24 23:30:59;;;;;;;7.10;5.78;;;12.60;99.90;;;;;;5209278;28;20052;-66
2023/10/24 23:33:32;;;;;;;8.63;5.32;;;12.60;99.90;;;;;;5232247;28;20043;-66